Terminal Aerodrome Forecast
Issued by NWS Brownsville, TX

Home | Current Version | Previous Version | Text Only | Print | Product List | Glossary On
Versions: 1 2 3 4 5 6 7 8 9 10 11 12 13 14 15 16 17 18 19 20 21 22 23
775
FTUS44 KBRO 280540
TAFHRL
TAF
KHRL 280540Z 2806/2906 16010KT P6SM FEW022 WS020/17040KT
      TEMPO 2808/2812 BKN020
     FM281400 16017G25KT P6SM SCT035
     FM281700 18026G35KT P6SM SKC
     FM290000 15018G25KT P6SM SCT050
     FM290300 15016G23KT P6SM BKN025=

USA.gov is the U.S. government's official web portal to all federal, state and local government web resources and services.